createdAt,value
2022-12-16T06:08:11.432Z,98954.13
2022-12-16T06:10:56.911Z,98935.47
2022-12-16T06:13:42.384Z,98948.34
2022-12-16T06:16:27.951Z,98953.66
2022-12-16T06:19:13.481Z,98945.88
2022-12-16T06:21:59.030Z,98972.66
2022-12-16T06:24:44.449Z,98988.34
2022-12-16T06:27:30.566Z,98979.56
2022-12-16T06:30:15.909Z,99012.28
2022-12-16T06:33:03.834Z,99045.34
2022-12-16T06:35:51.122Z,99078.81
2022-12-16T06:38:36.473Z,99040.69
2022-12-16T06:41:41.867Z,99047.22
2022-12-16T06:44:27.391Z,99049.06
2022-12-16T06:47:13.178Z,99055.75
2022-12-16T06:49:58.653Z,99075.66
2022-12-16T06:52:45.394Z,99080.16
2022-12-16T06:55:30.900Z,99078.69
2022-12-16T06:58:17.440Z,99076.59
2022-12-16T07:01:04.040Z,99107.28
2022-12-16T07:03:51.217Z,99098.41
2022-12-16T07:06:36.859Z,99105.75
2022-12-16T07:09:25.993Z,99105.81
2022-12-16T07:12:11.455Z,99093.66
2022-12-16T07:14:56.989Z,99127.44
2022-12-16T07:17:42.578Z,99133.50
2022-12-16T07:20:28.524Z,99138.44
2022-12-16T07:23:19.988Z,99145.94
2022-12-16T07:26:08.477Z,99144.38
2022-12-16T07:29:22.496Z,99166.91
2022-12-16T07:32:13.902Z,99166.91
2022-12-16T07:34:59.424Z,99169.09
2022-12-16T07:37:46.499Z,99188.69
2022-12-16T07:40:43.721Z,99182.66
2022-12-16T07:43:33.062Z,99166.19
2022-12-16T07:46:20.362Z,99184.59
2022-12-16T07:50:02.474Z,99213.88
2022-12-16T07:52:57.314Z,99202.34
2022-12-16T07:55:58.006Z,99212.59
2022-12-16T08:01:51.283Z,99256.75
2022-12-16T08:04:43.184Z,99210.22
2022-12-16T08:07:31.833Z,99216.44
2022-12-16T08:10:38.133Z,99274.97
2022-12-16T08:13:41.453Z,99220.00
2022-12-16T08:20:12.773Z,99218.56
2022-12-16T08:22:59.807Z,99265.22
2022-12-16T08:25:49.233Z,99242.53
2022-12-16T08:32:33.171Z,99266.16
2022-12-16T08:35:38.580Z,99275.31
2022-12-16T08:39:42.971Z,99286.56
2022-12-16T08:43:10.848Z,99284.56
2022-12-16T08:46:09.265Z,99293.28
2022-12-16T08:50:02.031Z,99289.47
2022-12-16T08:53:37.522Z,99310.19
2022-12-16T08:57:07.204Z,99313.94
2022-12-16T09:00:15.850Z,99308.44
2022-12-16T09:03:19.996Z,99300.84
2022-12-16T09:06:13.224Z,99338.84
2022-12-16T09:08:58.890Z,99340.13
2022-12-16T09:11:45.409Z,99345.97
2022-12-16T09:14:31.113Z,99349.53
2022-12-16T09:17:16.850Z,99353.03
2022-12-16T09:20:02.228Z,99335.16
2022-12-16T09:22:49.286Z,99353.03
2022-12-16T09:25:46.068Z,99359.53
2022-12-16T09:28:31.874Z,99354.94
2022-12-16T09:31:20.396Z,99352.34
2022-12-16T09:34:06.022Z,99366.28
2022-12-16T09:36:53.202Z,99349.38
2022-12-16T09:39:42.327Z,99379.19
2022-12-16T09:42:42.179Z,99376.63
2022-12-16T09:45:28.945Z,99378.38
2022-12-16T09:48:32.799Z,99376.66
2022-12-16T09:51:23.329Z,99378.03
2022-12-16T09:54:13.073Z,99388.00
2022-12-16T09:56:59.887Z,99386.91
2022-12-16T09:59:56.194Z,99410.25
2022-12-16T10:02:44.357Z,99398.81
2022-12-16T10:05:36.217Z,99418.47
2022-12-16T10:09:18.012Z,99408.38
2022-12-16T10:12:17.846Z,99427.59
2022-12-16T10:15:15.578Z,99429.66
2022-12-16T10:18:04.618Z,99437.44
2022-12-16T10:21:17.876Z,99441.09
2022-12-16T10:24:18.697Z,99440.28
2022-12-16T10:27:28.198Z,99444.19
2022-12-16T10:30:14.388Z,99454.97
2022-12-16T10:33:07.374Z,99459.09
2022-12-16T10:39:13.039Z,99472.03
2022-12-16T10:42:04.288Z,99486.66
2022-12-16T10:45:14.604Z,99481.69
2022-12-16T10:48:01.500Z,99470.94
2022-12-16T10:50:47.211Z,99475.38
2022-12-16T10:53:37.773Z,99484.53
2022-12-16T10:56:53.261Z,99495.22
2022-12-16T10:59:46.636Z,99501.81
2022-12-16T11:02:39.326Z,99524.72
2022-12-16T11:05:52.654Z,99525.06
2022-12-16T11:09:06.096Z,99519.63
2022-12-16T11:11:55.691Z,99544.06
2022-12-16T11:15:27.752Z,99531.03
2022-12-16T11:18:26.047Z,99556.97
2022-12-16T11:21:43.973Z,99563.97
2022-12-16T11:24:57.065Z,99554.38
2022-12-16T11:27:47.545Z,99577.25
2022-12-16T11:30:38.250Z,99581.91
2022-12-16T11:33:46.359Z,99587.56
2022-12-16T11:36:38.073Z,99582.94
2022-12-16T11:39:32.461Z,99597.38
2022-12-16T11:42:20.504Z,99612.63
2022-12-16T11:45:20.187Z,99607.13
2022-12-16T11:48:15.920Z,99597.41
2022-12-16T11:51:19.246Z,99584.31
2022-12-16T11:59:05.822Z,99665.81
2022-12-16T12:02:19.819Z,99640.63
2022-12-16T12:05:11.013Z,99637.16
2022-12-16T12:08:27.657Z,99641.94
2022-12-16T12:11:40.125Z,99635.31
2022-12-16T12:14:35.612Z,99643.78
2022-12-16T12:17:43.004Z,99637.47
2022-12-16T12:20:51.728Z,99658.38
2022-12-16T12:24:11.592Z,99643.78
2022-12-16T12:27:09.811Z,99651.22
2022-12-16T12:30:18.423Z,99652.22
2022-12-16T12:33:31.764Z,99655.69
2022-12-16T12:36:41.908Z,99660.19
2022-12-16T12:39:53.143Z,99669.81
2022-12-16T12:43:03.729Z,99671.97
2022-12-16T12:46:10.486Z,99662.00
2022-12-16T12:49:23.978Z,99663.97
2022-12-16T12:52:45.538Z,99665.47
2022-12-16T12:55:47.467Z,99674.13
2022-12-16T12:58:37.515Z,99676.44
2022-12-16T13:01:28.148Z,99674.13
2022-12-16T13:04:13.870Z,99685.22
2022-12-16T13:07:14.191Z,99666.63
2022-12-16T13:10:02.791Z,99683.22
2022-12-16T13:12:53.277Z,99695.97
2022-12-16T13:16:00.287Z,99700.94
2022-12-16T13:18:51.347Z,99713.22
2022-12-16T13:21:57.491Z,99702.94
2022-12-16T13:25:05.118Z,99719.34
2022-12-16T13:28:11.535Z,99709.88
2022-12-16T13:31:00.210Z,99716.03
2022-12-16T13:33:50.339Z,99725.13
2022-12-16T13:36:39.269Z,99743.53
2022-12-16T13:39:49.335Z,99731.97
2022-12-16T13:43:12.848Z,99745.88
2022-12-16T13:46:02.289Z,99754.00
2022-12-16T13:49:11.542Z,99744.53
2022-12-16T13:51:58.210Z,99758.78
2022-12-16T13:54:49.937Z,99762.41
2022-12-16T13:57:39.903Z,99769.53
2022-12-16T14:00:39.754Z,99776.22
2022-12-16T14:03:38.131Z,99765.59
2022-12-16T14:06:31.434Z,99769.38
2022-12-16T14:09:22.687Z,99784.78
2022-12-16T14:12:27.324Z,99768.09
2022-12-16T14:15:30.523Z,99785.97
2022-12-16T14:18:38.034Z,99787.47
2022-12-16T14:21:32.392Z,99794.59
2022-12-16T14:24:29.763Z,99782.50
2022-12-16T14:27:20.129Z,99787.00
2022-12-16T14:30:08.972Z,99790.16
2022-12-16T14:32:54.709Z,99788.66
2022-12-16T14:36:11.751Z,99777.53
2022-12-16T14:39:08.766Z,99785.50
2022-12-16T14:41:56.485Z,99798.94
2022-12-16T14:44:44.277Z,99769.91
2022-12-16T14:47:41.324Z,99804.72
2022-12-16T14:50:59.584Z,99797.91
2022-12-16T14:53:59.330Z,99802.72
2022-12-16T14:56:59.329Z,99839.88
2022-12-16T14:59:48.218Z,99813.00
2022-12-16T15:02:51.621Z,99806.53
2022-12-16T15:05:46.069Z,99809.03
2022-12-16T15:08:32.160Z,99802.56
2022-12-16T15:11:20.074Z,99803.22
2022-12-16T15:14:19.689Z,99821.13
2022-12-16T15:17:08.138Z,99832.91
2022-12-16T15:20:14.509Z,99816.81
2022-12-16T15:23:08.140Z,99832.09
2022-12-16T15:26:00.588Z,99846.19
2022-12-16T15:29:02.927Z,99836.06
2022-12-16T15:32:03.169Z,99830.94
2022-12-16T15:35:09.650Z,99831.06
2022-12-16T15:38:04.621Z,99848.03
2022-12-16T15:40:59.056Z,99835.56
2022-12-16T15:43:57.366Z,99847.50
2022-12-16T15:46:48.204Z,99818.81
2022-12-16T15:49:37.014Z,99842.34
2022-12-16T15:52:56.338Z,99842.34
2022-12-16T15:55:50.813Z,99847.81
2022-12-16T15:59:04.397Z,99836.22
2022-12-16T16:02:04.439Z,99837.34
2022-12-16T16:04:50.670Z,99851.97
2022-12-16T16:07:45.530Z,99846.50
2022-12-16T16:10:44.415Z,99829.25
2022-12-16T16:13:31.872Z,99857.28
2022-12-16T16:16:20.885Z,99839.53
2022-12-16T16:19:07.804Z,99832.72
2022-12-16T16:21:53.524Z,99849.16
2022-12-16T16:24:39.238Z,99839.53
2022-12-16T16:27:34.314Z,99844.84
2022-12-16T16:30:20.614Z,99838.69
2022-12-16T16:33:27.841Z,99835.88
2022-12-16T16:36:19.424Z,99845.16
2022-12-16T16:39:06.602Z,99843.50
2022-12-16T16:41:56.572Z,99842.06
2022-12-16T16:44:42.485Z,99842.34
2022-12-16T16:47:47.038Z,99856.63
2022-12-16T16:50:42.483Z,99853.97
2022-12-16T16:53:42.799Z,99856.59
2022-12-16T16:56:33.161Z,99836.22
2022-12-16T16:59:45.187Z,99875.00
2022-12-16T17:02:47.518Z,99827.88
2022-12-16T17:05:33.979Z,99845.66
2022-12-16T17:08:21.020Z,99855.94
2022-12-16T17:14:26.643Z,99840.84
2022-12-16T17:17:19.379Z,99866.88
2022-12-16T17:20:06.912Z,99822.94
2022-12-16T17:22:54.538Z,99814.97
2022-12-16T17:25:44.635Z,99841.66
2022-12-16T17:28:34.287Z,99838.16
2022-12-16T17:34:44.144Z,99855.13
2022-12-16T17:37:33.246Z,99866.41
2022-12-16T17:40:20.704Z,99827.09
2022-12-16T17:43:11.752Z,99851.47
2022-12-16T17:46:00.849Z,99830.56
2022-12-16T17:48:46.442Z,99853.63
2022-12-16T17:51:36.489Z,99858.09
2022-12-16T17:54:29.038Z,99859.09
2022-12-16T17:57:15.877Z,99827.09
2022-12-16T18:00:01.734Z,99882.81
2022-12-16T18:02:58.525Z,99888.28
2022-12-16T18:05:45.005Z,99886.47
2022-12-16T18:08:31.598Z,99890.44
2022-12-16T18:11:17.924Z,99886.78
2022-12-16T18:14:09.242Z,99886.63
2022-12-16T18:16:58.647Z,99873.84
2022-12-16T18:19:44.471Z,99874.63
2022-12-16T18:22:30.268Z,99890.44
2022-12-16T18:25:17.133Z,99893.41
2022-12-16T18:28:02.819Z,99903.38
2022-12-16T18:30:49.216Z,99892.25
2022-12-16T18:33:34.888Z,99897.41
2022-12-16T18:36:28.347Z,99903.38
2022-12-16T18:39:13.966Z,99893.25
2022-12-16T18:42:02.494Z,99881.47
2022-12-16T18:44:49.384Z,99879.81
2022-12-16T18:47:35.766Z,99876.00
2022-12-16T18:50:27.833Z,99872.69
2022-12-16T18:53:16.591Z,99884.63
2022-12-16T18:56:02.003Z,99880.84
2022-12-16T18:58:51.826Z,99888.00
2022-12-16T19:01:38.338Z,99894.63
2022-12-16T19:04:26.914Z,99882.69
2022-12-16T19:07:15.684Z,99883.19
2022-12-16T19:10:01.238Z,99891.31
2022-12-16T19:12:53.225Z,99904.25
2022-12-16T19:15:41.456Z,99902.53
2022-12-16T19:18:27.851Z,99905.88
2022-12-16T19:21:14.801Z,99924.13
2022-12-16T19:24:04.977Z,99938.25
2022-12-16T19:26:50.683Z,99937.56
2022-12-16T19:29:37.531Z,99935.59
2022-12-16T19:32:32.586Z,99952.00
2022-12-16T19:35:44.143Z,99965.94
2022-12-16T19:38:33.536Z,99950.84
2022-12-16T19:41:19.106Z,99963.78
2022-12-16T19:44:06.443Z,99976.38
2022-12-16T19:49:59.336Z,100004.59
2022-12-16T19:52:47.860Z,99984.69
2022-12-16T19:55:34.628Z,99992.31
2022-12-16T19:58:20.577Z,99994.13
2022-12-16T20:01:06.030Z,99991.31
2022-12-16T20:03:56.742Z,99983.03
2022-12-16T20:06:42.913Z,99959.81
2022-12-16T20:09:28.716Z,99968.28
2022-12-16T20:12:14.249Z,99972.75
2022-12-16T20:15:00.159Z,99967.94
2022-12-16T20:17:45.707Z,99977.75
2022-12-16T20:20:32.080Z,99987.53
2022-12-16T20:23:19.636Z,99977.91
2022-12-16T20:26:16.243Z,99969.13
2022-12-16T20:29:02.141Z,99963.69
2022-12-16T20:31:48.105Z,99973.47
2022-12-16T20:34:33.813Z,99953.72
2022-12-16T20:37:19.728Z,99923.31
2022-12-16T20:40:05.291Z,99940.13
2022-12-16T20:42:51.066Z,99951.91
2022-12-16T20:45:40.785Z,99937.13
2022-12-16T20:48:26.561Z,99952.22
2022-12-16T20:51:22.571Z,99964.84
2022-12-16T20:54:16.358Z,99960.34
2022-12-16T20:57:01.783Z,99951.06
2022-12-16T20:59:47.196Z,99941.44
2022-12-16T21:02:35.072Z,99960.69
2022-12-16T21:05:21.613Z,99952.72
2022-12-16T21:08:17.942Z,99930.31
2022-12-16T21:11:03.589Z,99938.47
2022-12-16T21:13:49.618Z,99936.13
2022-12-16T21:16:35.307Z,99924.34
2022-12-16T21:19:20.773Z,99922.53
2022-12-16T21:22:06.522Z,99918.53
2022-12-16T21:24:52.102Z,99923.69
2022-12-16T21:27:37.623Z,99921.38
2022-12-16T21:30:23.550Z,99910.38
2022-12-16T21:33:09.517Z,99937.78
2022-12-16T21:36:01.482Z,99917.22
2022-12-16T21:38:47.239Z,99919.38
2022-12-16T21:41:32.704Z,99944.75
2022-12-16T21:44:18.276Z,99921.88
2022-12-16T21:47:03.840Z,99913.72
2022-12-16T21:49:49.250Z,99911.22
2022-12-16T21:52:36.986Z,99917.53
2022-12-16T21:55:22.641Z,99927.31
2022-12-16T21:58:08.354Z,99945.22
2022-12-16T22:01:00.466Z,99926.97
2022-12-16T22:04:01.989Z,99929.00
2022-12-16T22:06:49.032Z,99904.41
2022-12-16T22:09:37.525Z,99905.25
2022-12-16T22:12:35.463Z,99924.16
2022-12-16T22:15:30.444Z,99913.03
2022-12-16T22:18:16.562Z,99924.66
2022-12-16T22:21:04.412Z,99924.66
2022-12-16T22:23:53.252Z,99911.88
2022-12-16T22:26:41.590Z,99890.66
2022-12-16T22:29:27.014Z,99902.09
2022-12-16T22:32:12.921Z,99897.09
2022-12-16T22:34:58.571Z,99904.56
2022-12-16T22:36:20.284Z,99972.75
2022-12-16T22:37:44.301Z,99912.53
2022-12-16T22:40:31.074Z,99893.63
2022-12-16T22:43:16.726Z,99928.47
2022-12-16T22:46:02.466Z,99906.25
2022-12-16T22:48:48.212Z,99908.91
2022-12-16T22:51:34.566Z,99921.16
2022-12-16T22:54:20.370Z,99897.13
2022-12-16T22:57:06.573Z,99899.44
2022-12-16T22:59:52.269Z,99895.47
2022-12-16T23:02:38.962Z,99900.63
2022-12-16T23:05:28.048Z,99907.75
2022-12-16T23:08:14.248Z,99915.72
2022-12-16T23:11:27.238Z,99909.41
2022-12-16T23:14:15.647Z,99902.28
2022-12-16T23:17:01.290Z,99905.94
2022-12-16T23:19:46.749Z,99899.97
2022-12-16T23:22:32.393Z,99912.22
2022-12-16T23:25:17.809Z,99920.53
2022-12-16T23:28:03.595Z,99912.72
2022-12-16T23:30:49.139Z,99923.19
2022-12-16T23:33:35.032Z,99900.63
2022-12-16T23:36:22.562Z,99903.44
2022-12-16T23:39:08.079Z,99895.66
2022-12-16T23:41:53.476Z,99904.44
2022-12-16T23:44:49.759Z,99908.91
2022-12-16T23:47:39.528Z,99906.75
2022-12-16T23:50:25.841Z,99910.75
2022-12-16T23:53:26.624Z,99897.63
2022-12-16T23:56:20.162Z,99890.50
2022-12-16T23:59:07.386Z,99886.34
